Погода Маковьена 2 недели

Могилёвская область, Белоруссия

24 июля-06 августа
  • 24июля
    Сегодня
    +12°
    +25°
    Практически безоблачно
    ВремяПогодаТемператураВлажностьДавлениеВетер, м/сВероятность осадков
    00:00Ясно и безоблачно+16°C88 %746 мм1.7 м/с2 %
    03:00Ясно и безоблачно+15°C94 %746 мм1.9 м/с2 %
    06:00Практически безоблачно+14°C93 %747 мм2.1 м/с2 %
    09:00Облачно с прояснениями+20°C71 %747 мм1.5 м/с2 %
    12:00Небольшая облачность+23°C48 %746 мм3.0 м/с7 %
    15:00Практически безоблачно+25°C43 %746 мм3.0 м/с2 %
    18:00Ясно и безоблачно+24°C41 %745 мм2.2 м/с2 %
    21:00Ясно и безоблачно+19°C62 %745 мм2.4 м/с2 %
  • 25июля
    Четверг
    +14°
    +26°
    Пасмурно, сплошная облачность
    ВремяПогодаТемператураВлажностьДавлениеВетер, м/сВероятность осадков
    00:00Ясно и безоблачно+16°C68 %745 мм0.8 м/с2 %
    03:00Практически безоблачно+14°C80 %745 мм1.6 м/с2 %
    06:00Ясно и безоблачно+13°C85 %744 мм0.7 м/с2 %
    09:00Ясно и безоблачно+19°C61 %745 мм1.4 м/с2 %
    12:00Практически безоблачно+24°C39 %744 мм2.0 м/с2 %
    15:00Пасмурно, сплошная облачность+25°C36 %744 мм1.3 м/с2 %
    18:00Облачно с прояснениями+25°C38 %743 мм1.2 м/с2 %
    21:00Практически безоблачно+22°C48 %744 мм0.4 м/с2 %
  • 26июля
    Пятница
    +14°
    +27°
    Практически безоблачно
    ВремяПогодаТемператураВлажностьДавлениеВетер, м/сВероятность осадков
    00:00Ясно и безоблачно+16°C71 %744 мм2.0 м/с2 %
    03:00Практически безоблачно+15°C77 %744 мм2.1 м/с2 %
    06:00Ясно и безоблачно+15°C82 %744 мм1.4 м/с2 %
    09:00Ясно и безоблачно+20°C64 %745 мм1.6 м/с2 %
    12:00Практически безоблачно+25°C46 %745 мм2.6 м/с5 %
    15:00Практически безоблачно+26°C47 %746 мм1.7 м/с19 %
    18:00Практически безоблачно+24°C60 %746 мм2.6 м/с32 %
    21:00Ясно и безоблачно+20°C79 %747 мм2.1 м/с13 %
  • 27июля
    Суббота
    +15°
    +28°
    Практически безоблачно
    ВремяПогодаТемператураВлажностьДавлениеВетер, м/сВероятность осадков
    00:00Ясно и безоблачно+17°C87 %748 мм1.8 м/с2 %
    03:00Ясно и безоблачно+15°C92 %748 мм1.4 м/с2 %
    06:00Ясно и безоблачно+15°C94 %749 мм0.4 м/с4 %
    09:00Ясно и безоблачно+22°C69 %750 мм0.7 м/с3 %
    12:00Ясно и безоблачно+25°C52 %750 мм1.1 м/с8 %
    15:00Практически безоблачно+27°C47 %750 мм2.5 м/с18 %
    18:00Ясно и безоблачно+27°C44 %749 мм2.7 м/с21 %
    21:00Ясно и безоблачно+23°C61 %750 мм1.9 м/с12 %
  • 28июля
    Воскресенье
    +17°
    +28°
    Облачно с прояснениями
    ВремяПогодаТемператураВлажностьДавлениеВетер, м/сВероятность осадков
    00:00Ясно и безоблачно+18°C79 %750 мм2.0 м/с2 %
    03:00Облачно с прояснениями+17°C77 %750 мм2.1 м/с2 %
    06:00Небольшая облачность+16°C76 %750 мм2.4 м/с2 %
    09:00Небольшая облачность+22°C61 %750 мм2.4 м/с2 %
    12:00Облачно с прояснениями+27°C45 %750 мм4.6 м/с8 %
    15:00Облачно с прояснениями+28°C46 %749 мм4.8 м/с14 %
    18:00Небольшая облачность+27°C46 %748 мм3.4 м/с19 %
    21:00Небольшая облачность+23°C62 %748 мм2.0 м/с17 %
Мы используем cookies
Соглашаюсь